createdAt,value
2024-01-15T00:02:21.982Z,3.60
2024-01-15T00:07:14.109Z,3.50
2024-01-15T00:12:06.717Z,3.60
2024-01-15T00:16:58.842Z,3.70
2024-01-15T00:21:51.421Z,3.60
2024-01-15T00:26:43.529Z,3.60
2024-01-15T00:31:37.461Z,3.60
2024-01-15T00:36:30.130Z,3.60
2024-01-15T00:41:22.505Z,3.60
2024-01-15T00:46:14.752Z,3.60
2024-01-15T00:51:06.846Z,3.60
2024-01-15T00:55:58.911Z,3.50
2024-01-15T01:00:51.096Z,3.60
2024-01-15T01:05:43.574Z,3.50
2024-01-15T01:10:35.727Z,3.40
2024-01-15T01:15:28.815Z,3.30
2024-01-15T01:20:22.228Z,3.30
2024-01-15T01:25:14.460Z,3.30
2024-01-15T01:30:08.495Z,3.20
2024-01-15T01:35:00.663Z,3.20
2024-01-15T01:39:52.765Z,3.20
2024-01-15T01:44:44.883Z,3.10
2024-01-15T01:49:38.103Z,3.10
2024-01-15T01:54:32.541Z,3.10
2024-01-15T01:59:27.006Z,3.10
2024-01-15T02:04:22.024Z,3.20
2024-01-15T02:09:16.303Z,3.20
2024-01-15T02:14:09.789Z,3.20
2024-01-15T02:19:01.985Z,3.20
2024-01-15T02:23:56.403Z,3.20
2024-01-15T02:28:49.410Z,3.30
2024-01-15T02:33:43.566Z,3.20
2024-01-15T02:38:35.716Z,3.10
2024-01-15T02:43:28.049Z,3.20
2024-01-15T02:48:20.163Z,3.20
2024-01-15T02:53:12.337Z,3.10
2024-01-15T02:58:05.138Z,3.10
2024-01-15T03:02:57.596Z,3.10
2024-01-15T03:07:49.769Z,3.10
2024-01-15T03:12:41.999Z,3.00
2024-01-15T03:17:34.289Z,3.00
2024-01-15T03:22:26.471Z,3.00
2024-01-15T03:27:18.628Z,2.90
2024-01-15T03:32:10.744Z,3.00
2024-01-15T03:37:02.950Z,2.90
2024-01-15T03:41:55.086Z,2.90
2024-01-15T03:46:47.185Z,2.90
2024-01-15T03:51:39.320Z,2.80
2024-01-15T03:56:31.446Z,2.90
2024-01-15T04:01:23.523Z,2.90
2024-01-15T04:06:15.764Z,2.80
2024-01-15T04:11:07.986Z,2.80
2024-01-15T04:16:01.720Z,2.70
2024-01-15T04:20:53.813Z,2.80
2024-01-15T04:25:47.130Z,2.70
2024-01-15T04:30:39.680Z,2.50
2024-01-15T04:35:32.422Z,2.50
2024-01-15T04:40:24.704Z,2.50
2024-01-15T04:45:17.199Z,2.50
2024-01-15T04:50:09.563Z,2.50
2024-01-15T04:55:01.604Z,2.50
2024-01-15T04:59:53.707Z,2.40
2024-01-15T05:04:45.868Z,2.10
2024-01-15T05:09:38.157Z,1.90
2024-01-15T05:14:30.386Z,1.60
2024-01-15T05:19:22.712Z,1.80
2024-01-15T05:24:14.935Z,1.70
2024-01-15T05:29:07.110Z,1.70
2024-01-15T05:33:59.343Z,1.90
2024-01-15T05:38:51.543Z,2.10
2024-01-15T05:43:43.632Z,2.00
2024-01-15T05:48:36.103Z,1.70
2024-01-15T05:53:28.262Z,1.70
2024-01-15T05:58:20.436Z,2.00
2024-01-15T06:03:12.586Z,2.20
2024-01-15T06:08:04.787Z,2.20
2024-01-15T06:12:56.975Z,2.20
2024-01-15T06:17:49.338Z,2.30
2024-01-15T06:22:41.621Z,2.30
2024-01-15T06:27:33.975Z,2.30
2024-01-15T06:32:26.260Z,2.30
2024-01-15T06:37:20.318Z,2.40
2024-01-15T06:42:12.342Z,2.30
2024-01-15T06:47:04.845Z,2.30
2024-01-15T06:51:57.475Z,2.40
2024-01-15T06:56:49.704Z,2.40
2024-01-15T07:01:42.655Z,2.40
2024-01-15T07:06:35.083Z,2.40
2024-01-15T07:11:27.208Z,2.30
2024-01-15T07:16:34.311Z,2.30
2024-01-15T07:21:29.727Z,2.40
2024-01-15T07:26:21.826Z,2.50
2024-01-15T07:31:14.157Z,2.60
2024-01-15T07:36:06.579Z,2.60
2024-01-15T07:40:58.869Z,2.50
2024-01-15T07:45:50.967Z,2.40
2024-01-15T07:50:43.157Z,2.40
2024-01-15T07:55:35.329Z,2.40
2024-01-15T08:00:27.555Z,2.50
2024-01-15T08:05:19.887Z,2.50
2024-01-15T08:10:12.041Z,2.50
2024-01-15T08:15:06.899Z,2.60
2024-01-15T08:19:59.160Z,2.60
2024-01-15T08:24:51.665Z,2.70
2024-01-15T08:29:43.706Z,2.70
2024-01-15T08:34:35.931Z,2.80
2024-01-15T08:39:28.167Z,2.80
2024-01-15T08:44:20.413Z,2.80
2024-01-15T08:49:12.853Z,2.80
2024-01-15T08:54:04.968Z,3.10
2024-01-15T08:58:57.130Z,3.10
2024-01-15T09:03:49.783Z,3.00
2024-01-15T09:08:42.042Z,3.30
2024-01-15T09:13:34.052Z,3.10
2024-01-15T09:18:26.392Z,3.20
2024-01-15T09:23:18.661Z,4.30
2024-01-15T09:28:10.754Z,5.20
2024-01-15T09:33:02.862Z,7.20
2024-01-15T09:37:55.029Z,7.30
2024-01-15T09:42:48.441Z,9.20
2024-01-15T09:47:45.536Z,9.60
2024-01-15T09:52:39.849Z,7.90
2024-01-15T09:57:33.060Z,6.70
2024-01-15T10:02:25.271Z,6.80
2024-01-15T10:07:21.115Z,7.20
2024-01-15T10:12:18.863Z,6.70
2024-01-15T10:17:18.340Z,8.80
2024-01-15T10:22:10.743Z,10.90
2024-01-15T10:27:10.508Z,10.50
2024-01-15T10:32:03.926Z,10.00
2024-01-15T10:36:59.161Z,9.10
2024-01-15T10:41:54.997Z,9.70
2024-01-15T10:46:48.320Z,10.00
2024-01-15T10:51:42.793Z,8.40
2024-01-15T10:56:36.074Z,7.50
2024-01-15T11:01:30.948Z,9.60
2024-01-15T11:06:25.919Z,10.70
2024-01-15T11:11:21.452Z,10.90
2024-01-15T11:16:15.301Z,9.60
2024-01-15T11:21:17.180Z,9.20
2024-01-15T11:26:28.364Z,8.70
2024-01-15T11:31:20.673Z,8.00
2024-01-15T11:36:13.007Z,6.60
2024-01-15T11:41:18.525Z,6.10
2024-01-15T11:46:14.027Z,6.30
2024-01-15T11:51:06.402Z,7.00
2024-01-15T11:56:01.020Z,8.10
2024-01-15T12:00:54.831Z,8.10
2024-01-15T12:05:47.106Z,7.70
2024-01-15T12:10:42.316Z,7.70
2024-01-15T12:15:36.309Z,7.20
2024-01-15T12:20:29.303Z,6.30
2024-01-15T12:25:21.501Z,6.00
2024-01-15T12:30:14.830Z,5.70
2024-01-15T12:35:07.463Z,5.80
2024-01-15T12:40:00.907Z,5.90
2024-01-15T12:44:53.314Z,5.70
2024-01-15T12:49:50.471Z,5.70
2024-01-15T12:54:42.599Z,5.50
2024-01-15T12:59:35.484Z,5.10
2024-01-15T13:04:28.266Z,5.10
2024-01-15T13:09:20.570Z,4.90
2024-01-15T13:14:14.800Z,5.00
2024-01-15T13:19:08.096Z,5.10
2024-01-15T13:24:00.329Z,5.00
2024-01-15T13:28:52.368Z,5.00
2024-01-15T13:33:45.040Z,5.20
2024-01-15T13:38:40.391Z,5.30
2024-01-15T13:43:35.520Z,5.00
2024-01-15T13:48:27.611Z,4.80
2024-01-15T13:53:20.408Z,4.50
2024-01-15T13:58:14.030Z,4.40
2024-01-15T14:03:06.430Z,4.20
2024-01-15T14:07:58.506Z,4.00
2024-01-15T14:12:50.600Z,3.80
2024-01-15T14:17:42.646Z,3.50
2024-01-15T14:22:34.883Z,3.50
2024-01-15T14:27:27.747Z,3.40
2024-01-15T14:32:19.862Z,3.50
2024-01-15T14:37:12.173Z,3.50
2024-01-15T14:42:04.502Z,3.30
2024-01-15T14:46:57.197Z,3.20
2024-01-15T14:51:50.963Z,3.00
2024-01-15T14:56:43.977Z,3.00
2024-01-15T15:01:36.404Z,2.80
2024-01-15T15:06:29.347Z,2.70
2024-01-15T15:11:22.000Z,2.70
2024-01-15T15:16:15.066Z,2.70
2024-01-15T15:21:08.713Z,2.60
2024-01-15T15:26:01.608Z,2.70
2024-01-15T15:30:54.167Z,2.60
2024-01-15T15:35:46.423Z,2.70
2024-01-15T15:40:38.521Z,2.50
2024-01-15T15:45:30.656Z,2.60
2024-01-15T15:50:23.341Z,2.70
2024-01-15T15:55:15.558Z,2.60
2024-01-15T16:00:09.575Z,2.60
2024-01-15T16:05:10.696Z,2.50
2024-01-15T16:10:03.118Z,2.50
2024-01-15T16:14:55.358Z,2.60
2024-01-15T16:23:27.275Z,2.60
2024-01-15T16:25:03.297Z,2.60
2024-01-15T16:29:57.599Z,2.70
2024-01-15T16:34:51.034Z,2.60
2024-01-15T16:39:43.309Z,2.70
2024-01-15T16:44:35.730Z,2.70
2024-01-15T16:49:28.450Z,2.70
2024-01-15T16:54:20.851Z,2.70
2024-01-15T16:59:12.938Z,2.70
2024-01-15T17:04:06.879Z,2.80
2024-01-15T17:08:58.962Z,2.60
2024-01-15T17:13:52.154Z,2.50
2024-01-15T17:18:47.337Z,2.50
2024-01-15T17:23:39.607Z,2.60
2024-01-15T17:28:31.770Z,2.60
2024-01-15T17:33:24.010Z,2.70
2024-01-15T17:38:16.289Z,2.60
2024-01-15T17:43:09.463Z,2.60
2024-01-15T17:48:02.299Z,2.60
2024-01-15T17:52:54.697Z,2.80
2024-01-15T17:57:46.788Z,2.60
2024-01-15T18:02:39.863Z,2.60
2024-01-15T18:07:31.973Z,2.70
2024-01-15T18:12:26.235Z,2.50
2024-01-15T18:17:18.325Z,2.50
2024-01-15T18:22:10.477Z,2.50
2024-01-15T18:27:04.697Z,2.50
2024-01-15T18:31:56.865Z,2.60
2024-01-15T18:36:49.620Z,2.40
2024-01-15T18:41:43.087Z,2.40
2024-01-15T18:46:35.123Z,2.40
2024-01-15T18:51:27.279Z,2.50
2024-01-15T18:56:19.582Z,2.60
2024-01-15T19:01:13.335Z,2.70
2024-01-15T19:06:06.092Z,2.60
2024-01-15T19:10:58.241Z,2.50
2024-01-15T19:15:50.706Z,2.40
2024-01-15T19:20:43.125Z,2.40
2024-01-15T19:25:35.783Z,2.40
2024-01-15T19:30:27.832Z,2.50
2024-01-15T19:35:20.176Z,2.50
2024-01-15T19:40:12.880Z,2.50
2024-01-15T19:45:06.744Z,2.40
2024-01-15T19:49:59.293Z,2.30
2024-01-15T19:54:51.760Z,2.30
2024-01-15T19:59:43.788Z,2.20
2024-01-15T20:04:36.052Z,2.20
2024-01-15T20:09:29.006Z,2.20
2024-01-15T20:14:22.960Z,2.20
2024-01-15T20:19:15.337Z,2.20
2024-01-15T20:24:08.110Z,2.20
2024-01-15T20:29:00.529Z,2.20
2024-01-15T20:33:52.934Z,2.20
2024-01-15T20:38:45.299Z,2.20
2024-01-15T20:43:37.478Z,2.20
2024-01-15T20:48:30.068Z,2.20
2024-01-15T20:53:22.264Z,2.20
2024-01-15T20:58:14.319Z,2.20
2024-01-15T21:03:06.689Z,2.20
2024-01-15T21:07:58.889Z,2.20
2024-01-15T21:12:50.997Z,2.20
2024-01-15T21:17:43.763Z,2.30
2024-01-15T21:22:37.018Z,2.30
2024-01-15T21:27:29.159Z,2.30
2024-01-15T21:32:22.034Z,2.30
2024-01-15T21:37:14.456Z,2.30
2024-01-15T21:42:06.615Z,2.40
2024-01-15T21:46:58.804Z,2.50
2024-01-15T21:51:50.933Z,2.50
2024-01-15T21:56:43.005Z,2.50
2024-01-15T22:01:35.068Z,2.50
2024-01-15T22:06:27.470Z,2.50
2024-01-15T22:11:20.398Z,2.50
2024-01-15T22:16:12.991Z,2.40
2024-01-15T22:21:06.284Z,2.40
2024-01-15T22:25:58.344Z,2.50
2024-01-15T22:30:51.952Z,2.50
2024-01-15T22:35:44.209Z,2.50
2024-01-15T22:40:36.494Z,2.40
2024-01-15T22:45:28.798Z,2.20
2024-01-15T22:50:21.061Z,1.90
2024-01-15T22:55:13.108Z,1.90
2024-01-15T23:00:27.195Z,1.90
2024-01-15T23:05:20.971Z,1.90
2024-01-15T23:10:15.351Z,1.90
2024-01-15T23:15:08.136Z,1.90
2024-01-15T23:20:00.484Z,1.90
2024-01-15T23:24:52.807Z,2.00
2024-01-15T23:29:45.274Z,2.00
2024-01-15T23:34:37.623Z,2.00
2024-01-15T23:39:30.697Z,1.80
2024-01-15T23:44:22.942Z,1.80
2024-01-15T23:49:15.364Z,1.70
2024-01-15T23:54:07.573Z,1.50
2024-01-15T23:58:59.854Z,1.40
